Terminal Aerodrome Forecast
Issued by NWS

Home | Current Version | Previous Version | Text Only | Print | Product List | Glossary On
Versions: 1 2 3 4 5 6 7 8 9 10 11 12 13 14 15 16
000
FTUS43 KDVN 220500
TAFCID
TAF
KCID 220520Z 2206/2306 32009KT P6SM OVC014
      TEMPO 2209/2212 5SM BR BKN008
     FM221400 32006KT 4SM BR OVC014
     FM221800 29007KT 6SM BR OVC015
     FM230100 24005KT P6SM SCT200=

USA.gov is the U.S. government's official web portal to all federal, state and local government web resources and services.